Time;durP1;ratioP1;P1;durP2;ratioP2;P2;SDS_P1;SDS_P2;PMS_P1;PMS_P2;Temp;Humidity;BMP_temperature;BMP_pressure;BME280_temperature;BME280_humidity;BME280_pressure;Samples;Min_cycle;Max_cycle;Signal;HPM_P1;HPM_P2
2022/05/21 00:01:22;;;;;;;3.38;0.30;;;;;;;15.93;67.20;101561.94;7393481;19;20499;-65
2022/05/21 00:03:49;;;;;;;5.45;0.43;;;;;;;15.90;67.70;101564.94;7390080;19;20055;-69
2022/05/21 00:06:16;;;;;;;5.45;0.30;;;;;;;15.86;67.91;101569.72;7389997;19;20015;-68
2022/05/21 00:08:43;;;;;;;4.80;0.50;;;;;;;15.86;68.52;101569.72;7391088;19;20037;-67
2022/05/21 00:11:10;;;;;;;4.60;0.60;;;;;;;15.89;69.39;101579.19;7389342;19;20081;-67
2022/05/21 00:13:38;;;;;;;3.03;0.30;;;;;;;15.88;69.42;101573.06;7389815;19;20010;-69
2022/05/21 00:16:06;;;;;;;5.90;0.60;;;;;;;15.88;68.57;101577.53;7389661;19;20014;-67
2022/05/21 00:18:33;;;;;;;6.70;0.50;;;;;;;15.81;68.25;101583.50;7391931;19;20018;-68
2022/05/21 00:21:01;;;;;;;6.10;0.40;;;;;;;15.76;69.23;101574.41;7394124;19;20019;-68
2022/05/21 00:23:31;;;;;;;2.80;0.30;;;;;;;15.77;69.87;101573.41;7393545;19;20040;-68
2022/05/21 00:26:02;;;;;;;3.80;0.50;;;;;;;15.80;68.90;101578.38;7390480;19;20041;-67
2022/05/21 00:28:30;;;;;;;5.95;0.43;;;;;;;15.79;68.88;101577.56;7386403;19;20300;-67
2022/05/21 00:30:59;;;;;;;4.47;0.35;;;;;;;15.80;68.87;101588.97;7388853;19;20124;-66
2022/05/21 00:33:28;;;;;;;6.90;0.60;;;;;;;15.78;68.97;101577.72;7389378;19;20009;-66
2022/05/21 00:35:55;;;;;;;3.33;0.73;;;;;;;15.70;69.41;101586.50;7392638;19;20071;-70
2022/05/21 00:38:23;;;;;;;4.80;0.32;;;;;;;15.67;69.95;101581.53;7386679;19;20024;-66
2022/05/21 00:40:51;;;;;;;6.50;0.43;;;;;;;15.68;70.25;101574.41;7388244;19;20014;-70
2022/05/21 00:43:33;;;;;;;2.10;0.35;;;;;;;15.62;70.12;101572.44;7385587;19;20026;-66
2022/05/21 00:46:01;;;;;;;3.70;0.68;;;;;;;15.61;71.60;101576.91;7386790;19;20045;-68
2022/05/21 00:48:28;;;;;;;5.50;0.30;;;;;;;15.60;72.11;101580.53;7392469;19;20357;-67
2022/05/21 00:50:54;;;;;;;6.88;0.30;;;;;;;15.57;71.03;101580.06;7389280;19;20014;-69
2022/05/21 00:53:22;;;;;;;5.13;0.25;;;;;;;15.54;71.27;101580.41;7388745;19;20038;-66
2022/05/21 00:55:51;;;;;;;2.33;0.40;;;;;;;15.46;71.33;101573.22;7389575;19;20018;-69
2022/05/21 01:01:03;;;;;;;7.05;0.45;;;;;;;15.32;72.15;101580.03;7387248;19;20006;-67
2022/05/21 01:03:30;;;;;;;4.78;0.50;;;;;;;15.31;72.38;101582.84;7386035;19;20010;-68
2022/05/21 01:06:02;;;;;;;5.55;0.38;;;;;;;15.33;73.03;101591.47;7386897;19;20013;-67
2022/05/21 01:08:30;;;;;;;3.88;0.38;;;;;;;15.28;72.62;101589.31;7386253;19;20035;-67
2022/05/21 01:11:02;;;;;;;3.75;0.30;;;;;;;15.28;73.50;101591.13;7386065;19;20576;-67
2022/05/21 01:13:34;;;;;;;2.53;0.30;;;;;;;15.31;73.55;101598.75;7390520;19;20010;-69
2022/05/21 01:16:04;;;;;;;6.03;0.30;;;;;;;15.32;73.24;101585.34;7391823;19;20111;-68
2022/05/21 01:18:32;;;;;;;4.93;0.70;;;;;;;15.29;73.28;101590.94;7398943;19;20044;-66
2022/05/21 01:21:00;;;;;;;6.50;0.32;;;;;;;15.26;73.83;101593.94;7397334;19;20021;-66
2022/05/21 01:23:28;;;;;;;7.20;0.32;;;;;;;15.24;73.72;101593.25;7397259;19;20018;-67
2022/05/21 01:25:57;;;;;;;2.78;0.30;;;;;;;15.23;73.34;101604.88;7393825;19;20861;-68
2022/05/21 01:28:26;;;;;;;5.63;0.40;;;;;;;15.23;73.68;101596.94;7392068;19;20010;-68
2022/05/21 01:30:57;;;;;;;4.15;0.30;;;;;;;15.20;74.01;101601.72;7395206;19;20021;-67
2022/05/21 01:33:30;;;;;;;8.82;0.90;;;;;;;15.18;74.14;101598.41;7393203;19;20015;-67
2022/05/21 01:35:58;;;;;;;8.82;0.65;;;;;;;15.15;73.41;101604.84;7393735;19;20038;-68
2022/05/21 01:38:31;;;;;;;5.63;0.50;;;;;;;15.14;73.45;101605.00;7392807;19;20082;-68
2022/05/21 01:40:59;;;;;;;9.88;0.40;;;;;;;15.13;73.64;101606.88;7394770;19;20487;-67
2022/05/21 01:46:04;;;;;;;6.53;0.55;;;;;;;15.20;74.35;101596.41;7394797;19;20531;-67
2022/05/21 01:48:33;;;;;;;5.25;0.40;;;;;;;15.20;73.42;101586.63;7392560;19;20006;-68
2022/05/21 01:51:06;;;;;;;5.30;0.30;;;;;;;15.21;73.12;101583.00;7395347;19;20015;-67
2022/05/21 01:53:43;;;;;;;2.50;0.40;;;;;;;15.18;73.29;101579.84;7388686;19;20362;-66
2022/05/21 01:56:12;;;;;;;9.98;0.55;;;;;;;15.14;73.25;101576.69;7394247;19;20007;-68
2022/05/21 01:58:40;;;;;;;6.15;0.60;;;;;;;15.07;73.74;101578.34;7394081;19;20010;-67
2022/05/21 02:01:08;;;;;;;3.83;0.40;;;;;;;15.09;74.09;101583.47;7391758;19;20003;-68
2022/05/21 02:03:36;;;;;;;4.78;0.40;;;;;;;15.09;74.08;101584.28;7391162;19;20026;-67
2022/05/21 02:06:04;;;;;;;7.32;0.47;;;;;;;15.08;73.96;101577.38;7393661;19;20011;-67
2022/05/21 02:08:32;;;;;;;2.08;0.30;;;;;;;15.07;73.85;101582.81;7392916;19;20030;-67
2022/05/21 02:10:59;;;;;;;7.03;0.50;;;;;;;15.06;74.44;101586.47;7392350;19;20075;-68
2022/05/21 02:13:31;;;;;;;4.60;0.30;;;;;;;15.07;73.96;101586.31;7391492;19;20027;-67
2022/05/21 02:15:58;;;;;;;5.22;0.20;;;;;;;15.05;73.81;101576.84;7395054;19;20649;-69
2022/05/21 02:18:25;;;;;;;3.25;0.30;;;;;;;15.01;73.98;101578.16;7391976;19;20038;-66
2022/05/21 02:20:53;;;;;;;5.05;0.40;;;;;;;14.98;74.31;101577.47;7393791;19;20018;-68
2022/05/21 02:23:21;;;;;;;11.18;4.30;;;;;;;14.99;75.70;101583.63;7393603;19;20015;-69
2022/05/21 02:25:48;;;;;;;5.25;0.50;;;;;;;14.99;74.99;101584.44;7391770;19;20074;-66
2022/05/21 02:28:16;;;;;;;6.20;0.40;;;;;;;14.96;74.67;101583.97;7391287;19;20014;-68
2022/05/21 02:30:44;;;;;;;5.40;0.40;;;;;;;14.99;74.73;101583.63;7392514;19;20464;-67
2022/05/21 02:33:11;;;;;;;3.97;0.32;;;;;;;14.99;74.75;101587.09;7391811;19;20036;-68
2022/05/21 02:35:39;;;;;;;9.90;0.45;;;;;;;14.98;74.56;101592.59;7393933;19;20367;-69
2022/05/21 02:40:43;;;;;;;5.28;0.32;;;;;;;14.97;74.66;101594.41;7393839;19;20077;-69
2022/05/21 02:43:10;;;;;;;5.38;0.40;;;;;;;14.93;74.49;101587.75;7392913;19;20373;-67
2022/05/21 02:45:37;;;;;;;6.13;0.50;;;;;;;14.89;74.71;101589.06;7394634;19;20022;-67
2022/05/21 02:48:04;;;;;;;6.18;0.35;;;;;;;14.89;75.10;101597.00;7390677;19;20086;-68
2022/05/21 02:50:34;;;;;;;7.40;0.40;;;;;;;14.87;75.45;101588.41;7393206;19;20515;-68
2022/05/21 02:53:03;;;;;;;6.22;0.50;;;;;;;14.89;76.37;101588.22;7386824;19;20039;-67
2022/05/21 02:55:30;;;;;;;6.60;0.50;;;;;;;14.88;75.82;101592.69;7392909;19;20014;-68
2022/05/21 02:57:57;;;;;;;8.55;0.55;;;;;;;14.85;75.29;101605.44;7386749;19;20525;-67
2022/05/21 03:00:26;;;;;;;4.85;0.30;;;;;;;14.83;75.87;101605.59;7391762;19;20010;-71
2022/05/21 03:02:54;;;;;;;7.25;0.52;;;;;;;14.79;75.80;101606.09;7391736;19;20075;-68
2022/05/21 03:05:22;;;;;;;8.15;0.60;;;;;;;14.76;75.78;101607.25;7383729;19;20094;-67
2022/05/21 03:07:51;;;;;;;4.10;0.50;;;;;;;14.78;77.24;101613.22;7390639;19;20042;-68
2022/05/21 03:10:27;;;;;;;5.60;0.50;;;;;;;14.81;76.11;101618.22;7390825;19;20029;-68
2022/05/21 03:13:04;;;;;;;7.72;0.63;;;;;;;14.78;75.65;101620.34;7390490;19;20044;-67
2022/05/21 03:15:35;;;;;;;6.05;0.30;;;;;;;14.74;76.02;101613.69;7389454;19;20006;-67
2022/05/21 03:18:07;;;;;;;2.90;0.30;;;;;;;14.70;76.22;101617.66;7390495;19;20022;-68
2022/05/21 03:20:35;;;;;;;4.88;0.50;;;;;;;14.68;76.49;101615.16;7387472;19;20456;-69
2022/05/21 03:23:03;;;;;;;5.25;0.43;;;;;;;14.64;76.89;101619.13;7388611;19;20027;-68
2022/05/21 03:25:33;;;;;;;7.00;0.30;;;;;;;14.61;76.93;101624.75;7390681;19;20046;-69
2022/05/21 03:28:05;;;;;;;3.45;0.40;;;;;;;14.61;76.75;101618.63;7385783;19;20044;-66
2022/05/21 03:30:33;;;;;;;6.15;0.38;;;;;;;14.57;76.65;101625.22;7389984;19;20444;-69
2022/05/21 03:33:00;;;;;;;6.78;0.43;;;;;;;14.53;76.72;101620.22;7385906;19;20352;-66
2022/05/21 03:35:28;;;;;;;8.10;3.20;;;;;;;14.55;78.45;101625.38;7388917;19;20040;-67
2022/05/21 03:37:55;;;;;;;5.78;0.57;;;;;;;14.54;78.58;101621.91;7386393;19;20010;-68
2022/05/21 03:40:27;;;;;;;6.57;0.98;;;;;;;14.48;77.54;101622.53;7387784;19;20032;-69
2022/05/21 03:42:54;;;;;;;4.15;0.50;;;;;;;14.41;77.15;101625.97;7388785;19;20015;-66
2022/05/21 03:45:22;;;;;;;10.27;1.10;;;;;;;14.37;77.38;101628.13;7387607;19;20015;-68
2022/05/21 03:47:50;;;;;;;6.68;0.70;;;;;;;14.31;77.54;101622.59;7386881;19;20339;-67
2022/05/21 03:50:21;;;;;;;9.32;0.82;;;;;;;14.28;77.96;101626.38;7387569;19;20010;-67
2022/05/21 03:52:48;;;;;;;8.82;0.40;;;;;;;14.28;78.78;101622.88;7385425;19;20010;-67
2022/05/21 03:55:15;;;;;;;8.45;0.40;;;;;;;14.32;78.46;101617.16;7389031;19;20434;-68
2022/05/21 03:57:42;;;;;;;9.85;0.68;;;;;;;14.33;78.03;101617.94;7388239;19;20014;-67
2022/05/21 04:00:13;;;;;;;6.45;0.40;;;;;;;14.34;77.72;101620.44;7389102;19;20074;-66
2022/05/21 04:02:40;;;;;;;10.00;0.70;;;;;;;14.34;77.88;101625.75;7388179;19;20014;-68
2022/05/21 04:05:09;;;;;;;5.88;0.60;;;;;;;14.37;78.16;101635.22;7386270;19;20012;-67
2022/05/21 04:07:37;;;;;;;4.65;0.30;;;;;;;14.39;78.19;101625.28;7389126;19;20126;-68
2022/05/21 04:10:05;;;;;;;6.53;0.32;;;;;;;14.37;78.24;101629.94;7391927;19;20030;-68
2022/05/21 04:12:32;;;;;;;4.03;0.50;;;;;;;14.32;78.13;101626.91;7390349;19;20034;-68
2022/05/21 04:14:59;;;;;;;3.42;0.30;;;;;;;14.31;78.31;101625.25;7385768;19;20010;-66
2022/05/21 04:17:26;;;;;;;5.88;0.40;;;;;;;14.28;78.49;101622.88;7388286;19;20015;-67
2022/05/21 04:19:55;;;;;;;10.98;1.02;;;;;;;14.25;78.69;101612.63;7387182;19;20132;-68
2022/05/21 04:22:21;;;;;;;7.13;0.80;;;;;;;14.21;78.52;101617.41;7389126;19;20413;-67
2022/05/21 04:24:48;;;;;;;5.47;0.68;;;;;;;14.21;78.11;101608.63;7386845;19;20118;-68
2022/05/21 04:27:15;;;;;;;4.43;0.35;;;;;;;14.20;78.79;101610.44;7387449;19;20011;-67
2022/05/21 04:29:42;;;;;;;4.57;0.55;;;;;;;14.19;78.73;101618.53;7387523;19;20049;-68
2022/05/21 04:32:10;;;;;;;5.78;0.50;;;;;;;14.21;78.72;101622.72;7388174;19;20011;-68
2022/05/21 04:34:37;;;;;;;6.90;0.60;;;;;;;14.20;78.68;101620.19;7389104;19;20003;-68
2022/05/21 04:37:04;;;;;;;11.02;0.63;;;;;;;14.23;79.03;101607.47;7386503;19;20125;-68
2022/05/21 04:39:31;;;;;;;8.32;0.68;;;;;;;14.25;78.88;101610.81;7384416;19;20033;-67
2022/05/21 04:42:00;;;;;;;5.18;0.40;;;;;;;14.28;78.95;101622.88;7387199;19;20027;-68
2022/05/21 04:44:31;;;;;;;6.43;0.70;;;;;;;14.27;78.52;101629.19;7386388;19;20034;-69
2022/05/21 04:46:59;;;;;;;3.88;0.40;;;;;;;14.26;78.39;101623.06;7385714;19;20115;-68
2022/05/21 04:49:26;;;;;;;5.65;0.77;;;;;;;14.25;79.19;101636.44;7386060;19;20011;-67
2022/05/21 04:51:54;;;;;;;8.10;0.32;;;;;;;14.26;79.49;101630.16;7383712;19;20475;-66
2022/05/21 04:54:21;;;;;;;7.65;0.40;;;;;;;14.29;78.92;101643.91;7384230;19;20011;-68
2022/05/21 04:56:48;;;;;;;5.00;0.40;;;;;;;14.31;78.76;101643.78;7384704;19;20037;-67
2022/05/21 04:59:15;;;;;;;5.18;0.70;;;;;;;14.28;78.82;101647.53;7383818;19;20379;-67
2022/05/21 05:01:43;;;;;;;5.35;0.40;;;;;;;14.26;79.11;101654.84;7386439;19;20383;-68
2022/05/21 05:04:10;;;;;;;9.15;2.53;;;;;;;14.27;79.78;101653.03;7389208;19;20010;-67
2022/05/21 05:06:38;;;;;;;8.65;0.40;;;;;;;14.29;79.31;101659.81;7385120;19;20328;-67
2022/05/21 05:09:06;;;;;;;6.05;0.60;;;;;;;14.28;78.71;101655.47;7386444;19;20006;-66
2022/05/21 05:11:34;;;;;;;6.90;0.40;;;;;;;14.26;78.74;101654.00;7386531;19;20413;-67
2022/05/21 05:14:01;;;;;;;9.18;0.43;;;;;;;14.28;79.02;101659.94;7382737;19;20022;-69
2022/05/21 05:16:28;;;;;;;8.13;0.40;;;;;;;14.26;78.96;101654.84;7384054;19;20393;-67
2022/05/21 05:18:55;;;;;;;10.38;0.95;;;;;;;14.27;80.17;101664.44;7383759;19;20038;-67
2022/05/21 05:21:21;;;;;;;9.45;0.40;;;;;;;14.26;79.94;101660.13;7386648;19;20028;-68
2022/05/21 05:23:48;;;;;;;4.35;0.30;;;;;;;14.27;79.39;101668.91;7383487;19;20022;-67
2022/05/21 05:26:16;;;;;;;5.03;0.25;;;;;;;14.23;79.23;101665.72;7385350;19;20081;-69
2022/05/21 05:28:44;;;;;;;7.07;0.50;;;;;;;14.22;78.90;101677.28;7385005;19;20431;-67
2022/05/21 05:31:13;;;;;;;5.72;0.40;;;;;;;14.20;79.06;101673.16;7383624;19;20356;-67
2022/05/21 05:33:40;;;;;;;5.38;0.57;;;;;;;14.20;79.69;101687.22;7385413;19;20015;-66
2022/05/21 05:36:07;;;;;;;2.42;0.30;;;;;;;14.21;79.92;101688.03;7383495;19;20015;-66
2022/05/21 05:38:35;;;;;;;10.23;0.57;;;;;;;14.17;79.37;101687.50;7386994;19;20084;-67
2022/05/21 05:41:05;;;;;;;6.38;0.60;;;;;;;14.14;79.84;101693.94;7385871;19;20007;-66
2022/05/21 05:43:32;;;;;;;7.47;0.30;;;;;;;14.16;79.80;101700.91;7381200;19;20421;-66
2022/05/21 05:45:59;;;;;;;7.05;0.57;;;;;;;14.14;79.53;101695.78;7385966;19;20030;-66
2022/05/21 05:48:28;;;;;;;5.72;0.40;;;;;;;14.16;79.94;101690.31;7388447;19;20018;-68
2022/05/21 05:50:56;;;;;;;4.38;0.40;;;;;;;14.19;80.21;101688.19;7385695;19;20036;-69
2022/05/21 05:53:24;;;;;;;6.53;0.40;;;;;;;14.19;79.70;101698.78;7384549;19;20018;-68
2022/05/21 05:55:51;;;;;;;7.93;0.30;;;;;;;14.19;79.44;101687.34;7385360;19;20019;-68
2022/05/21 06:00:55;;;;;;;2.30;0.45;;;;;;;14.29;80.16;101701.31;7388531;19;20503;-67
2022/05/21 06:03:22;;;;;;;3.50;0.65;;;;;;;14.29;79.68;101699.50;7389023;19;20502;-68
2022/05/21 06:05:50;;;;;;;6.38;0.40;;;;;;;14.27;79.93;101693.56;7393619;19;20492;-68
2022/05/21 06:08:17;;;;;;;11.75;0.55;;;;;;;14.35;80.17;101703.34;7389901;19;20006;-67
2022/05/21 06:10:45;;;;;;;7.60;0.80;;;;;;;14.38;79.79;101690.66;7391968;19;20056;-68
2022/05/21 06:13:13;;;;;;;6.07;0.30;;;;;;;14.44;79.68;101690.03;7392891;19;20010;-69
2022/05/21 06:15:41;;;;;;;6.05;0.40;;;;;;;14.51;79.23;101698.19;7394731;19;20014;-67
2022/05/21 06:18:11;;;;;;;10.30;0.80;;;;;;;14.58;79.08;101699.22;7390776;19;20026;-68
2022/05/21 06:20:39;;;;;;;7.65;0.50;;;;;;;14.54;78.53;101703.16;7392193;19;20452;-70
2022/05/21 06:23:06;;;;;;;6.35;0.43;;;;;;;14.50;78.95;101704.47;7388945;19;20068;-67
2022/05/21 06:25:34;;;;;;;10.98;0.70;;;;;;;14.53;78.94;101696.22;7391056;19;20073;-66
2022/05/21 06:28:22;;;;;;;6.35;0.50;;;;;;;14.51;78.76;101700.84;7389476;19;20059;-68
2022/05/21 06:30:49;;;;;;;9.57;0.68;;;;;;;14.50;78.77;101692.06;7391197;19;20015;-68
2022/05/21 06:33:28;;;;;;;6.95;1.02;;;;;;;14.50;79.05;101694.72;7387498;19;20029;-67
2022/05/21 06:36:06;;;;;;;7.00;1.13;;;;;;;14.55;79.67;101695.06;7389082;19;20010;-67
2022/05/21 06:38:37;;;;;;;11.95;0.82;;;;;;;14.57;79.34;101702.03;7387846;19;20014;-68
2022/05/21 06:41:05;;;;;;;9.00;0.40;;;;;;;14.59;79.39;101698.22;7391682;19;20028;-66
2022/05/21 06:43:32;;;;;;;7.95;0.70;;;;;;;14.63;79.19;101699.56;7385129;19;20048;-68
2022/05/21 06:45:59;;;;;;;7.07;0.60;;;;;;;14.69;79.09;101711.38;7392861;19;20011;-67
2022/05/21 06:48:26;;;;;;;3.63;0.50;;;;;;;14.75;78.79;101713.38;7389649;19;20007;-68
2022/05/21 06:50:53;;;;;;;8.15;0.47;;;;;;;14.80;79.17;101711.94;7391518;19;20127;-69
2022/05/21 06:53:21;;;;;;;7.93;0.80;;;;;;;14.83;79.12;101713.44;7387764;19;20057;-70
2022/05/21 06:55:48;;;;;;;10.05;0.70;;;;;;;14.87;78.72;101718.28;7391992;19;20003;-68
2022/05/21 06:58:15;;;;;;;6.97;0.50;;;;;;;14.88;78.12;101719.91;7388572;19;20484;-69
2022/05/21 07:00:43;;;;;;;8.80;0.50;;;;;;;14.90;78.30;101722.41;7387151;19;20483;-67
2022/05/21 07:03:10;;;;;;;11.27;0.50;;;;;;;14.91;78.35;101726.72;7388969;19;20443;-69
2022/05/21 07:08:20;;;;;;;3.35;0.40;;;;;;;15.04;78.51;101731.56;7388388;19;20010;-67
2022/05/21 07:10:48;;;;;;;15.00;1.00;;;;;;;15.12;78.05;101737.75;7387761;19;20034;-68
2022/05/21 07:13:16;;;;;;;7.05;0.45;;;;;;;15.15;77.96;101747.19;7389198;19;20097;-69
2022/05/21 07:15:43;;;;;;;6.93;0.63;;;;;;;15.16;77.77;101746.22;7386849;19;20034;-67
2022/05/21 07:18:12;;;;;;;7.28;0.65;;;;;;;15.14;77.56;101740.22;7386500;19;20032;-70
2022/05/21 07:20:38;;;;;;;6.97;0.70;;;;;;;15.16;77.97;101746.22;7388873;19;20033;-70
2022/05/21 07:23:05;;;;;;;11.85;0.88;;;;;;;15.24;78.38;101740.91;7388282;19;20015;-68
2022/05/21 07:25:32;;;;;;;5.55;0.55;;;;;;;15.26;77.37;101738.94;7389093;19;20380;-67
2022/05/21 07:27:59;;;;;;;6.93;0.60;;;;;;;15.30;77.21;101732.31;7386670;19;20007;-68
2022/05/21 07:30:28;;;;;;;9.90;1.08;;;;;;;15.33;77.23;101735.50;7390961;19;20018;-66
2022/05/21 07:32:55;;;;;;;7.38;0.82;;;;;;;15.40;77.29;101743.63;7390085;19;20337;-67
2022/05/21 07:35:24;;;;;;;8.55;0.77;;;;;;;15.50;77.86;101732.88;7386278;19;20031;-67
2022/05/21 07:37:52;;;;;;;5.47;0.57;;;;;;;15.56;77.06;101735.75;7389328;19;20020;-68
2022/05/21 07:40:24;;;;;;;9.13;0.57;;;;;;;15.66;76.41;101743.56;7390260;19;20007;-69
2022/05/21 07:43:11;;;;;;;5.85;0.52;;;;;;;15.76;75.67;101750.38;7386648;19;20498;-68
2022/05/21 07:45:39;;;;;;;7.65;0.50;;;;;;;15.89;75.37;101751.72;7389020;19;20015;-68
2022/05/21 07:48:07;;;;;;;10.20;0.90;;;;;;;15.99;74.88;101753.25;7386069;19;20078;-68
2022/05/21 07:50:34;;;;;;;6.50;0.70;;;;;;;16.04;75.26;101747.44;7388567;19;20047;-68
2022/05/21 07:53:02;;;;;;;8.48;0.70;;;;;;;16.10;75.14;101749.44;7385829;19;20007;-68
2022/05/21 07:55:29;;;;;;;6.30;0.60;;;;;;;16.12;74.08;101745.59;7387429;19;20026;-67
2022/05/21 07:57:56;;;;;;;9.25;0.70;;;;;;;16.13;73.79;101747.25;7391905;19;20018;-67
2022/05/21 08:00:23;;;;;;;8.45;0.82;;;;;;;16.14;74.29;101745.44;7388057;19;20006;-68
2022/05/21 08:02:50;;;;;;;2.97;0.50;;;;;;;16.16;73.69;101748.75;7388817;19;20014;-67
2022/05/21 08:05:17;;;;;;;12.45;0.82;;;;;;;16.16;73.49;101741.59;7384768;19;20023;-67
2022/05/21 08:07:49;;;;;;;9.45;0.93;;;;;;;16.27;74.52;101746.59;7388921;19;20456;-67
2022/05/21 08:10:16;;;;;;;11.13;0.70;;;;;;;16.34;73.84;101738.78;7385314;19;20019;-68
2022/05/21 08:12:42;;;;;;;9.25;0.68;;;;;;;16.35;73.04;101740.44;7388032;19;20034;-69
2022/05/21 08:15:11;;;;;;;8.45;0.70;;;;;;;16.35;72.45;101743.09;7383755;19;20030;-69
2022/05/21 08:17:42;;;;;;;7.47;0.80;;;;;;;16.37;72.21;101735.78;7387053;19;20014;-67
2022/05/21 08:20:11;;;;;;;9.65;0.85;;;;;;;16.41;72.50;101738.91;7390218;19;20468;-69
2022/05/21 08:27:59;;;;;;;10.20;1.25;;;;;;;16.57;70.51;101723.78;7388682;19;20033;-66
2022/05/21 08:30:27;;;;;;;11.13;1.20;;;;;;;16.61;70.68;101734.94;7388250;19;20002;-66
2022/05/21 08:33:04;;;;;;;7.07;1.33;;;;;;;16.71;70.93;101727.59;7384927;19;20732;-66
2022/05/21 08:35:35;;;;;;;9.27;0.95;;;;;;;16.73;69.60;101730.91;7385728;19;20015;-68
2022/05/21 08:38:02;;;;;;;12.95;1.90;;;;;;;16.82;71.23;101737.03;7388368;19;20371;-68
2022/05/21 08:40:49;;;;;;;8.63;0.60;;;;;;;16.93;70.25;101729.53;7384660;19;20017;-69
2022/05/21 08:43:46;;;;;;;8.43;1.02;;;;;;;17.01;67.51;101739.31;7381973;19;20006;-68
2022/05/21 08:46:36;;;;;;;10.75;0.80;;;;;;;17.05;67.85;101743.28;7381613;19;20304;-67
2022/05/21 08:49:08;;;;;;;7.80;1.05;;;;;;;17.07;67.95;101744.75;7383856;19;20014;-67
2022/05/21 08:51:45;;;;;;;4.32;0.68;;;;;;;17.13;67.08;101747.72;7385585;19;20387;-67
2022/05/21 08:54:23;;;;;;;10.23;0.90;;;;;;;17.18;68.02;101745.38;7383198;19;20003;-67
2022/05/21 08:56:54;;;;;;;8.98;1.35;;;;;;;17.24;66.86;101747.34;7386333;19;20431;-70
2022/05/21 08:59:26;;;;;;;10.48;0.90;;;;;;;17.34;66.86;101743.47;7380066;19;20011;-68
2022/05/21 09:01:53;;;;;;;5.97;0.77;;;;;;;17.42;66.54;101737.28;7385353;19;20089;-67
2022/05/21 09:04:30;;;;;;;4.82;0.75;;;;;;;17.47;65.31;101741.06;7386842;19;20030;-69
2022/05/21 09:07:02;;;;;;;8.63;1.25;;;;;;;17.50;63.59;101742.56;7383717;19;20381;-65
2022/05/21 09:09:39;;;;;;;;;;;;;;;17.56;65.00;101728.56;7387271;19;20007;-68
2022/05/21 09:12:38;;;;;;;5.57;0.60;;;;;;;17.63;64.56;101734.84;7385705;19;20347;-66
2022/05/21 09:15:09;;;;;;;8.05;0.90;;;;;;;17.68;64.62;101743.13;7384134;19;20006;-67
2022/05/21 09:17:42;;;;;;;11.00;0.90;;;;;;;17.78;64.81;101737.56;7387214;19;20448;-68
2022/05/21 09:20:18;;;;;;;5.22;0.70;;;;;;;17.85;64.68;101730.53;7384777;19;20137;-68
2022/05/21 09:22:54;;;;;;;7.57;0.93;;;;;;;17.88;62.20;101724.84;7387974;19;20035;-68
2022/05/21 09:25:25;;;;;;;9.30;1.00;;;;;;;17.90;61.09;101725.50;7387088;19;20018;-68
2022/05/21 09:28:06;;;;;;;6.10;0.98;;;;;;;17.97;61.15;101729.13;7383852;19;20018;-68
2022/05/21 09:30:36;;;;;;;7.25;1.42;;;;;;;18.02;60.23;101728.59;7384853;19;20372;-69
2022/05/21 09:33:21;;;;;;;7.47;0.90;;;;;;;18.06;60.06;101711.22;7382906;19;20353;-68
2022/05/21 09:35:53;;;;;;;4.15;0.80;;;;;;;18.10;60.36;101717.84;7384196;19;20007;-68
2022/05/21 09:38:28;;;;;;;6.72;0.93;;;;;;;18.10;58.92;101716.00;7396691;19;20070;-71
2022/05/21 09:41:19;;;;;;;5.72;0.75;;;;;;;18.16;59.27;101709.16;7392716;19;20717;-68
2022/05/21 09:46:31;;;;;;;7.97;1.30;;;;;;;18.19;56.53;101698.09;7395250;19;20011;-68
2022/05/21 09:49:16;;;;;;;3.70;0.70;;;;;;;18.18;55.87;101701.81;7392902;19;20021;-70
2022/05/21 09:51:54;;;;;;;6.25;0.80;;;;;;;18.13;55.01;101706.84;7396572;19;20017;-67
2022/05/21 09:54:26;;;;;;;7.32;0.65;;;;;;;18.12;55.23;101708.69;7389606;19;20034;-67
2022/05/21 09:56:55;;;;;;;7.00;0.90;;;;;;;18.12;54.64;101710.53;7391598;19;20022;-67
2022/05/21 09:59:26;;;;;;;7.50;0.60;;;;;;;18.14;55.48;101717.31;7391718;19;20017;-67
2022/05/21 10:01:57;;;;;;;5.38;0.65;;;;;;;18.20;55.01;101727.25;7392714;19;20016;-67
2022/05/21 10:04:44;;;;;;;4.88;0.50;;;;;;;18.26;53.59;101729.19;7390162;19;20018;-67
2022/05/21 10:13:04;;;;;;;6.32;0.50;;;;;;;18.35;55.01;101729.94;7395173;19;20055;-68
2022/05/21 10:15:39;;;;;;;10.57;0.57;;;;;;;18.39;56.94;101717.91;7391492;19;20010;-68
2022/05/21 10:18:28;;;;;;;8.50;0.60;;;;;;;18.43;55.73;101721.88;7390072;19;20436;-67
2022/05/21 10:21:15;;;;;;;6.20;0.60;;;;;;;18.52;56.23;101711.94;7394834;19;20092;-67
2022/05/21 10:23:49;;;;;;;6.28;0.70;;;;;;;18.63;56.25;101700.88;7391441;19;20022;-68
2022/05/21 10:26:27;;;;;;;6.63;0.60;;;;;;;18.72;55.29;101702.44;7391279;19;20027;-67
2022/05/21 10:28:54;;;;;;;6.05;0.55;;;;;;;18.84;56.29;101703.63;7389828;19;20042;-69
2022/05/21 10:31:33;;;;;;;5.95;0.50;;;;;;;19.00;55.41;101707.91;7389957;19;20010;-68
2022/05/21 10:34:25;;;;;;;5.13;0.50;;;;;;;19.12;55.24;101704.59;7387118;19;20007;-68
2022/05/21 10:37:15;;;;;;;4.88;0.50;;;;;;;19.19;55.20;101704.69;7390747;19;20006;-67
2022/05/21 10:39:43;;;;;;;7.35;0.70;;;;;;;19.17;53.04;101694.19;7391734;19;20417;-67
2022/05/21 10:42:27;;;;;;;5.55;0.43;;;;;;;19.17;53.82;101683.50;7389403;19;20514;-67
2022/05/21 10:45:11;;;;;;;6.35;0.60;;;;;;;19.23;55.65;101695.28;7394120;19;20025;-67
2022/05/21 10:48:05;;;;;;;6.00;0.50;;;;;;;19.24;54.62;101686.25;7388072;19;20549;-71
2022/05/21 10:50:40;;;;;;;6.43;0.40;;;;;;;19.26;53.69;101681.53;7391529;19;20481;-68
2022/05/21 10:53:26;;;;;;;5.25;0.47;;;;;;;19.31;54.51;101684.47;7386701;19;20014;-69
2022/05/21 10:56:13;;;;;;;8.52;0.70;;;;;;;19.36;54.11;101690.06;7388353;19;20082;-69
2022/05/21 10:58:49;;;;;;;3.38;0.35;;;;;;;19.41;53.13;101687.66;7388290;19;20082;-70
2022/05/21 11:03:54;;;;;;;6.40;0.50;;;;;;;19.49;51.03;101695.59;7392955;19;20490;-67
2022/05/21 11:06:31;;;;;;;3.10;0.45;;;;;;;19.50;51.22;101694.59;7391049;19;20018;-73
2022/05/21 11:09:09;;;;;;;4.20;0.40;;;;;;;19.53;51.55;101693.38;7390760;19;20037;-69
2022/05/21 11:11:53;;;;;;;3.50;0.55;;;;;;;19.53;50.59;101688.84;7392384;19;20030;-68
2022/05/21 11:14:33;;;;;;;3.00;0.43;;;;;;;19.59;51.59;101690.78;7389602;19;20012;-71
2022/05/21 11:17:32;;;;;;;6.20;0.40;;;;;;;19.67;50.30;101694.31;7393566;19;20008;-67
2022/05/21 11:20:17;;;;;;;5.43;0.40;;;;;;;19.69;50.32;101698.47;7391317;19;20014;-67
2022/05/21 11:22:56;;;;;;;3.03;0.40;;;;;;;19.77;49.76;101687.63;7391805;19;20217;-69
2022/05/21 11:25:39;;;;;;;3.35;0.50;;;;;;;19.85;49.58;101684.03;7391734;19;20503;-68
2022/05/21 11:28:23;;;;;;;5.53;0.40;;;;;;;19.87;48.43;101684.63;7390289;19;20467;-69
2022/05/21 11:37:20;;;;;;;4.28;0.50;;;;;;;19.99;50.57;101673.25;7390947;19;20021;-67
2022/05/21 11:39:51;;;;;;;6.15;0.60;;;;;;;19.97;53.55;101669.09;7391827;19;20498;-68
2022/05/21 11:42:24;;;;;;;4.97;0.47;;;;;;;19.95;51.87;101669.31;7392294;19;20678;-68
2022/05/21 11:44:55;;;;;;;3.20;0.50;;;;;;;19.94;50.87;101667.66;7391776;19;20029;-68
2022/05/21 11:47:22;;;;;;;2.63;0.30;;;;;;;19.88;49.34;101662.25;7388956;19;20006;-69
2022/05/21 11:50:01;;;;;;;3.75;0.30;;;;;;;19.88;50.66;101664.91;7390814;19;20094;-67
2022/05/21 11:52:31;;;;;;;3.13;0.40;;;;;;;19.84;48.44;101661.81;7389817;19;20006;-69
2022/05/21 11:55:07;;;;;;;3.28;0.25;;;;;;;19.83;47.84;101662.84;7390860;19;20014;-68
2022/05/21 11:57:43;;;;;;;3.78;0.40;;;;;;;19.88;49.76;101654.22;7391694;19;20114;-67
2022/05/21 12:00:24;;;;;;;4.95;0.40;;;;;;;19.91;49.52;101657.34;7389343;19;20461;-68
2022/05/21 12:02:54;;;;;;;5.93;0.32;;;;;;;19.88;49.45;101644.38;7389015;19;20011;-67
2022/05/21 12:05:34;;;;;;;3.28;0.38;;;;;;;19.83;50.84;101643.31;7388841;19;20329;-69
2022/05/21 12:08:12;;;;;;;3.60;0.30;;;;;;;19.79;51.38;101637.53;7390416;19;20011;-69
2022/05/21 12:10:58;;;;;;;1.70;0.43;;;;;;;19.77;51.29;101641.41;7392281;19;20011;-68
2022/05/21 12:13:34;;;;;;;4.05;0.40;;;;;;;19.78;50.97;101662.59;7389430;19;20651;-68
2022/05/21 12:16:16;;;;;;;4.20;0.38;;;;;;;19.80;50.84;101659.72;7390402;19;20441;-68
2022/05/21 12:18:46;;;;;;;5.50;0.40;;;;;;;19.77;50.13;101652.91;7390707;19;20510;-69